Wallops Island, Virginia
Current Conditions -  °F | °C
As of 6:12 AM on Wednesday 26 Nov 2014 (Local Time) from KWAL Reporting Station
Moderate Rain Moderate Rain  
Wind Chill: 37°   Ceiling: 700
Heat Index: 45°   Visibility: 3mi
Dew Point: 44°   Wind: 20mph
Humidity: 97%   Direction: 60°ENE
Pressure: 30"   Gusts: 28mph
Location:  37.94°N, 75.46°W
Report Text: KWAL 261112Z AUTO 06017G24KT 3SM RA BR BKN007 BKN028 OVC040 07/07 A3000 RMK AO2 P0002 T00720067
Loading
Personal Weather Stations






























Interactive Weather Map New forecast layout! Learn more

10-Day Weather Forecast

Advertisements
Track Severe Weather on mobile